sensor_id;sensor_type;location;lat;lon;timestamp;pressure;altitude;pressure_sealevel;temperature;humidity
41636;BME280;27623;51.966;4.602;2023-02-12T00:01:11;64170.19;;;9.31;98.63
41636;BME280;27623;51.966;4.602;2023-02-12T00:03:37;64160.56;;;9.24;98.95
41636;BME280;27623;51.966;4.602;2023-02-12T00:06:03;64133.16;;;9.25;99.81
41636;BME280;27623;51.966;4.602;2023-02-12T00:08:29;64122.59;;;9.27;99.59
41636;BME280;27623;51.966;4.602;2023-02-12T00:10:54;64165.09;;;9.31;98.58
41636;BME280;27623;51.966;4.602;2023-02-12T00:13:20;64145.81;;;9.39;98.20
41636;BME280;27623;51.966;4.602;2023-02-12T00:15:45;64114.63;;;9.29;98.60
41636;BME280;27623;51.966;4.602;2023-02-12T00:18:10;64160.56;;;9.32;99.23
41636;BME280;27623;51.966;4.602;2023-02-12T00:20:37;64128.41;;;9.30;99.17
41636;BME280;27623;51.966;4.602;2023-02-12T00:23:03;64111.34;;;9.26;100.00
41636;BME280;27623;51.966;4.602;2023-02-12T00:25:28;64146.94;;;9.26;100.00
41636;BME280;27623;51.966;4.602;2023-02-12T00:27:54;64129.31;;;9.28;100.00
41636;BME280;27623;51.966;4.602;2023-02-12T00:30:19;64152.56;;;9.34;99.39
41636;BME280;27623;51.966;4.602;2023-02-12T00:32:45;64170.38;;;9.26;99.38
41636;BME280;27623;51.966;4.602;2023-02-12T00:35:11;64136.94;;;9.28;99.56
41636;BME280;27623;51.966;4.602;2023-02-12T00:37:36;64141.69;;;9.30;100.00
41636;BME280;27623;51.966;4.602;2023-02-12T00:40:02;64136.41;;;9.28;99.84
41636;BME280;27623;51.966;4.602;2023-02-12T00:42:28;64120.44;;;9.18;100.00
41636;BME280;27623;51.966;4.602;2023-02-12T00:44:53;64106.66;;;9.10;100.00
41636;BME280;27623;51.966;4.602;2023-02-12T00:47:18;64122.63;;;9.20;100.00
41636;BME280;27623;51.966;4.602;2023-02-12T00:49:44;64136.41;;;9.21;100.00
41636;BME280;27623;51.966;4.602;2023-02-12T00:52:09;64154.56;;;9.19;100.00
41636;BME280;27623;51.966;4.602;2023-02-12T00:54:35;64140.59;;;9.15;100.00
41636;BME280;27623;51.966;4.602;2023-02-12T00:57:00;64126.09;;;9.11;100.00
41636;BME280;27623;51.966;4.602;2023-02-12T00:59:25;64148.03;;;9.20;100.00
41636;BME280;27623;51.966;4.602;2023-02-12T01:01:53;64090.69;;;9.07;100.00
41636;BME280;27623;51.966;4.602;2023-02-12T01:04:19;64145.13;;;9.15;99.60
41636;BME280;27623;51.966;4.602;2023-02-12T01:06:44;64096.47;;;9.17;99.55
41636;BME280;27623;51.966;4.602;2023-02-12T01:09:10;64113.34;;;9.18;99.87
41636;BME280;27623;51.966;4.602;2023-02-12T01:11:36;64130.44;;;9.15;99.86
41636;BME280;27623;51.966;4.602;2023-02-12T01:14:02;64120.28;;;9.08;100.00
41636;BME280;27623;51.966;4.602;2023-02-12T01:16:27;64125.19;;;9.06;100.00
41636;BME280;27623;51.966;4.602;2023-02-12T01:18:56;64116.28;;;9.09;100.00
41636;BME280;27623;51.966;4.602;2023-02-12T01:21:29;64136.41;;;9.21;99.46
41636;BME280;27623;51.966;4.602;2023-02-12T01:23:56;64145.84;;;9.18;99.63
41636;BME280;27623;51.966;4.602;2023-02-12T01:26:22;64131.88;;;9.21;99.69
41636;BME280;27623;51.966;4.602;2023-02-12T01:28:51;64154.22;;;9.28;99.00
41636;BME280;27623;51.966;4.602;2023-02-12T01:31:20;64179.44;;;9.33;98.14
41636;BME280;27623;51.966;4.602;2023-02-12T01:33:47;64127.50;;;9.24;98.20
41636;BME280;27623;51.966;4.602;2023-02-12T01:36:13;64143.66;;;9.30;98.15
41636;BME280;27623;51.966;4.602;2023-02-12T01:38:39;64141.50;;;9.21;98.06
41636;BME280;27623;51.966;4.602;2023-02-12T01:41:07;64134.97;;;9.15;98.33
41636;BME280;27623;51.966;4.602;2023-02-12T01:43:36;64155.13;;;9.19;98.84
41636;BME280;27623;51.966;4.602;2023-02-12T01:46:02;64131.34;;;9.21;98.22
41636;BME280;27623;51.966;4.602;2023-02-12T01:48:41;64147.13;;;9.21;97.92
41636;BME280;27623;51.966;4.602;2023-02-12T01:51:10;64134.59;;;9.17;98.70
41636;BME280;27623;51.966;4.602;2023-02-12T01:53:44;64115.19;;;9.15;98.54
41636;BME280;27623;51.966;4.602;2023-02-12T01:56:11;64125.56;;;9.04;99.53
41636;BME280;27623;51.966;4.602;2023-02-12T01:58:39;64158.38;;;9.15;99.42
41636;BME280;27623;51.966;4.602;2023-02-12T02:01:07;64140.03;;;9.22;97.88
41636;BME280;27623;51.966;4.602;2023-02-12T02:03:36;64148.41;;;9.18;97.50
41636;BME280;27623;51.966;4.602;2023-02-12T02:06:07;64146.44;;;9.11;98.83
41636;BME280;27623;51.966;4.602;2023-02-12T02:08:35;64129.91;;;9.08;98.98
41636;BME280;27623;51.966;4.602;2023-02-12T02:11:01;64124.28;;;9.07;99.36
41636;BME280;27623;51.966;4.602;2023-02-12T02:13:46;64115.56;;;9.06;98.91
41636;BME280;27623;51.966;4.602;2023-02-12T02:16:33;64109.75;;;9.10;98.65
41636;BME280;27623;51.966;4.602;2023-02-12T02:19:24;64116.81;;;9.17;97.25
41636;BME280;27623;51.966;4.602;2023-02-12T02:24:58;64134.44;;;9.14;97.23
41636;BME280;27623;51.966;4.602;2023-02-12T02:30:19;64107.00;;;9.15;96.36
41636;BME280;27623;51.966;4.602;2023-02-12T02:38:25;64108.13;;;9.09;95.92
41636;BME280;27623;51.966;4.602;2023-02-12T02:41:36;64093.41;;;9.09;95.61
41636;BME280;27623;51.966;4.602;2023-02-12T02:44:20;64164.00;;;9.16;95.95
41636;BME280;27623;51.966;4.602;2023-02-12T02:46:49;64111.56;;;9.00;96.93
41636;BME280;27623;51.966;4.602;2023-02-12T02:49:30;64137.16;;;9.03;98.13
41636;BME280;27623;51.966;4.602;2023-02-12T02:52:05;64097.97;;;9.02;98.22
41636;BME280;27623;51.966;4.602;2023-02-12T02:54:41;64084.94;;;8.89;98.38
41636;BME280;27623;51.966;4.602;2023-02-12T02:57:18;64118.50;;;8.90;97.88
41636;BME280;27623;51.966;4.602;2023-02-12T02:59:49;64129.19;;;9.05;98.00
41636;BME280;27623;51.966;4.602;2023-02-12T03:02:20;64111.03;;;9.07;96.94
41636;BME280;27623;51.966;4.602;2023-02-12T03:04:53;64116.13;;;9.07;97.59
41636;BME280;27623;51.966;4.602;2023-02-12T03:07:24;64082.34;;;9.04;97.51
41636;BME280;27623;51.966;4.602;2023-02-12T03:10:01;64129.00;;;9.02;98.18
41636;BME280;27623;51.966;4.602;2023-02-12T03:17:48;64091.44;;;8.95;98.06
41636;BME280;27623;51.966;4.602;2023-02-12T03:20:20;64107.44;;;8.91;98.54
41636;BME280;27623;51.966;4.602;2023-02-12T03:23:17;64114.13;;;9.00;98.22
41636;BME280;27623;51.966;4.602;2023-02-12T03:28:20;64119.19;;;9.00;97.92
41636;BME280;27623;51.966;4.602;2023-02-12T03:36:29;64108.13;;;8.94;98.01
41636;BME280;27623;51.966;4.602;2023-02-12T03:39:04;64111.94;;;9.05;97.48
41636;BME280;27623;51.966;4.602;2023-02-12T03:41:46;64134.09;;;9.09;96.78
41636;BME280;27623;51.966;4.602;2023-02-12T03:49:35;64121.75;;;9.00;97.45
41636;BME280;27623;51.966;4.602;2023-02-12T03:52:04;64103.44;;;8.92;96.91
41636;BME280;27623;51.966;4.602;2023-02-12T03:54:29;64107.97;;;8.92;98.02
41636;BME280;27623;51.966;4.602;2023-02-12T03:59:30;64131.53;;;8.95;97.96
41636;BME280;27623;51.966;4.602;2023-02-12T04:01:58;64085.09;;;8.85;98.45
41636;BME280;27623;51.966;4.602;2023-02-12T04:04:25;64092.72;;;8.78;99.60
41636;BME280;27623;51.966;4.602;2023-02-12T04:06:51;64104.34;;;8.84;99.16
41636;BME280;27623;51.966;4.602;2023-02-12T04:09:18;64093.47;;;8.88;99.29
41636;BME280;27623;51.966;4.602;2023-02-12T04:14:53;64116.50;;;8.83;98.57
41636;BME280;27623;51.966;4.602;2023-02-12T04:17:43;64109.06;;;8.86;99.51
41636;BME280;27623;51.966;4.602;2023-02-12T04:29:14;64096.91;;;8.86;98.56
41636;BME280;27623;51.966;4.602;2023-02-12T04:34:18;64096.72;;;8.91;98.37
41636;BME280;27623;51.966;4.602;2023-02-12T04:39:21;64106.31;;;8.98;98.16
41636;BME280;27623;51.966;4.602;2023-02-12T04:41:50;64109.06;;;8.93;98.61
41636;BME280;27623;51.966;4.602;2023-02-12T04:44:22;64116.69;;;8.86;99.21
41636;BME280;27623;51.966;4.602;2023-02-12T04:46:48;64098.34;;;8.85;99.97
41636;BME280;27623;51.966;4.602;2023-02-12T04:49:15;64084.94;;;8.82;99.31
41636;BME280;27623;51.966;4.602;2023-02-12T04:51:42;64087.47;;;8.82;99.26
41636;BME280;27623;51.966;4.602;2023-02-12T04:54:07;64099.25;;;8.84;100.00
41636;BME280;27623;51.966;4.602;2023-02-12T04:56:33;64092.00;;;8.82;99.57
41636;BME280;27623;51.966;4.602;2023-02-12T04:58:58;64103.81;;;8.83;100.00
41636;BME280;27623;51.966;4.602;2023-02-12T05:01:23;64075.88;;;8.69;100.00
41636;BME280;27623;51.966;4.602;2023-02-12T05:03:50;64092.00;;;8.82;100.00
41636;BME280;27623;51.966;4.602;2023-02-12T05:06:16;64086.03;;;8.76;100.00
41636;BME280;27623;51.966;4.602;2023-02-12T05:08:41;64074.59;;;8.80;100.00
41636;BME280;27623;51.966;4.602;2023-02-12T05:11:08;64095.28;;;8.92;98.54
41636;BME280;27623;51.966;4.602;2023-02-12T05:13:35;64121.56;;;8.98;97.59
41636;BME280;27623;51.966;4.602;2023-02-12T05:16:04;64076.41;;;8.77;98.98
41636;BME280;27623;51.966;4.602;2023-02-12T05:18:30;64086.38;;;8.74;100.00
41636;BME280;27623;51.966;4.602;2023-02-12T05:21:00;64116.69;;;8.86;99.20
41636;BME280;27623;51.966;4.602;2023-02-12T05:23:30;64094.19;;;8.84;97.82
41636;BME280;27623;51.966;4.602;2023-02-12T05:26:00;64116.69;;;8.93;97.83
41636;BME280;27623;51.966;4.602;2023-02-12T05:28:26;64086.19;;;8.86;98.13
41636;BME280;27623;51.966;4.602;2023-02-12T05:30:52;64109.25;;;8.88;98.80
41636;BME280;27623;51.966;4.602;2023-02-12T05:33:19;64100.34;;;8.85;98.32
41636;BME280;27623;51.966;4.602;2023-02-12T05:35:45;64098.19;;;8.76;99.28
41636;BME280;27623;51.966;4.602;2023-02-12T05:38:10;64064.81;;;8.71;99.70
41636;BME280;27623;51.966;4.602;2023-02-12T05:40:36;64094.72;;;8.77;98.89
41636;BME280;27623;51.966;4.602;2023-02-12T05:43:04;64083.84;;;8.74;99.58
41636;BME280;27623;51.966;4.602;2023-02-12T05:45:31;64063.88;;;8.79;100.00
41636;BME280;27623;51.966;4.602;2023-02-12T05:47:57;64085.84;;;8.81;100.00
41636;BME280;27623;51.966;4.602;2023-02-12T05:50:22;64046.28;;;8.75;99.78
41636;BME280;27623;51.966;4.602;2023-02-12T05:52:47;64038.84;;;8.77;99.75
41636;BME280;27623;51.966;4.602;2023-02-12T05:55:13;64051.06;;;8.48;99.51
41636;BME280;27623;51.966;4.602;2023-02-12T05:57:38;64058.84;;;8.58;100.00
41636;BME280;27623;51.966;4.602;2023-02-12T06:00:06;64069.72;;;8.61;100.00
41636;BME280;27623;51.966;4.602;2023-02-12T06:02:33;64071.00;;;8.57;100.00
41636;BME280;27623;51.966;4.602;2023-02-12T06:04:58;64073.34;;;8.62;100.00
41636;BME280;27623;51.966;4.602;2023-02-12T06:07:24;64074.44;;;8.56;100.00
41636;BME280;27623;51.966;4.602;2023-02-12T06:09:49;64079.69;;;8.73;100.00
41636;BME280;27623;51.966;4.602;2023-02-12T06:12:15;64065.50;;;8.81;98.77
41636;BME280;27623;51.966;4.602;2023-02-12T06:14:40;64100.53;;;8.80;99.28
41636;BME280;27623;51.966;4.602;2023-02-12T06:17:08;64105.78;;;8.90;98.12
41636;BME280;27623;51.966;4.602;2023-02-12T06:19:35;64094.53;;;8.82;97.34
41636;BME280;27623;51.966;4.602;2023-02-12T06:22:00;64110.16;;;8.87;98.15
41636;BME280;27623;51.966;4.602;2023-02-12T06:24:26;64075.31;;;8.83;98.45
41636;BME280;27623;51.966;4.602;2023-02-12T06:26:53;64131.19;;;8.97;97.24
41636;BME280;27623;51.966;4.602;2023-02-12T06:29:21;64106.34;;;8.90;97.76
41636;BME280;27623;51.966;4.602;2023-02-12T06:31:47;64073.31;;;8.76;98.67
41636;BME280;27623;51.966;4.602;2023-02-12T06:34:14;64060.09;;;8.69;99.24
41636;BME280;27623;51.966;4.602;2023-02-12T06:36:43;64107.63;;;8.73;100.00
41636;BME280;27623;51.966;4.602;2023-02-12T06:39:10;64074.78;;;8.61;100.00
41636;BME280;27623;51.966;4.602;2023-02-12T06:41:39;64103.63;;;8.59;100.00
41636;BME280;27623;51.966;4.602;2023-02-12T06:44:04;64092.56;;;8.68;100.00
41636;BME280;27623;51.966;4.602;2023-02-12T06:46:30;64077.69;;;8.73;99.03
41636;BME280;27623;51.966;4.602;2023-02-12T06:48:57;64077.31;;;8.75;98.77
41636;BME280;27623;51.966;4.602;2023-02-12T06:51:23;64090.38;;;8.73;98.91
41636;BME280;27623;51.966;4.602;2023-02-12T06:53:52;64101.28;;;8.62;99.80
41636;BME280;27623;51.966;4.602;2023-02-12T06:56:19;64093.47;;;8.74;99.21
41636;BME280;27623;51.966;4.602;2023-02-12T06:58:46;64078.94;;;8.84;98.56
41636;BME280;27623;51.966;4.602;2023-02-12T07:01:15;64066.97;;;8.80;98.49
41636;BME280;27623;51.966;4.602;2023-02-12T07:03:43;64105.06;;;8.80;98.89
41636;BME280;27623;51.966;4.602;2023-02-12T07:06:11;64098.56;;;8.67;99.94
41636;BME280;27623;51.966;4.602;2023-02-12T07:08:39;64069.53;;;8.66;100.00
41636;BME280;27623;51.966;4.602;2023-02-12T07:11:05;64072.63;;;8.66;100.00
41636;BME280;27623;51.966;4.602;2023-02-12T07:13:30;64085.13;;;8.78;99.24
41636;BME280;27623;51.966;4.602;2023-02-12T07:16:02;64056.44;;;8.75;99.45
41636;BME280;27623;51.966;4.602;2023-02-12T07:18:30;64068.25;;;8.76;99.33
41636;BME280;27623;51.966;4.602;2023-02-12T07:20:55;64076.22;;;8.74;99.20
41636;BME280;27623;51.966;4.602;2023-02-12T07:23:21;64092.41;;;8.66;99.83
41636;BME280;27623;51.966;4.602;2023-02-12T07:26:01;64074.63;;;8.73;99.41
41636;BME280;27623;51.966;4.602;2023-02-12T07:28:27;64095.28;;;8.78;98.82
41636;BME280;27623;51.966;4.602;2023-02-12T07:30:58;64060.81;;;8.65;99.98
41636;BME280;27623;51.966;4.602;2023-02-12T07:33:23;64089.31;;;8.72;99.52
41636;BME280;27623;51.966;4.602;2023-02-12T07:35:51;64070.44;;;8.71;99.85
41636;BME280;27623;51.966;4.602;2023-02-12T07:38:16;64060.97;;;8.74;99.06
41636;BME280;27623;51.966;4.602;2023-02-12T07:40:42;64058.81;;;8.72;98.79
41636;BME280;27623;51.966;4.602;2023-02-12T07:43:07;64076.06;;;8.72;99.18
41636;BME280;27623;51.966;4.602;2023-02-12T07:45:35;64059.91;;;8.66;99.77
41636;BME280;27623;51.966;4.602;2023-02-12T07:48:00;64082.41;;;8.61;100.00
41636;BME280;27623;51.966;4.602;2023-02-12T07:50:26;64053.56;;;8.70;99.91
41636;BME280;27623;51.966;4.602;2023-02-12T07:52:51;64036.69;;;8.61;100.00
41636;BME280;27623;51.966;4.602;2023-02-12T07:55:16;64090.75;;;8.64;100.00
41636;BME280;27623;51.966;4.602;2023-02-12T07:57:42;64050.50;;;8.62;100.00
41636;BME280;27623;51.966;4.602;2023-02-12T08:00:08;64048.13;;;8.65;100.00
41636;BME280;27623;51.966;4.602;2023-02-12T08:02:34;64089.09;;;8.77;100.00
41636;BME280;27623;51.966;4.602;2023-02-12T08:04:59;64078.06;;;8.71;100.00
41636;BME280;27623;51.966;4.602;2023-02-12T08:07:25;64119.59;;;8.77;100.00
41636;BME280;27623;51.966;4.602;2023-02-12T08:09:50;64086.75;;;8.86;99.50
41636;BME280;27623;51.966;4.602;2023-02-12T08:12:16;64075.31;;;8.76;99.46
41636;BME280;27623;51.966;4.602;2023-02-12T08:14:43;64092.19;;;8.77;99.67
41636;BME280;27623;51.966;4.602;2023-02-12T08:17:08;64091.66;;;8.77;99.11
41636;BME280;27623;51.966;4.602;2023-02-12T08:19:34;64087.09;;;8.84;98.62
41636;BME280;27623;51.966;4.602;2023-02-12T08:22:00;64103.81;;;8.83;98.19
41636;BME280;27623;51.966;4.602;2023-02-12T08:24:27;64109.44;;;8.84;98.50
41636;BME280;27623;51.966;4.602;2023-02-12T08:26:53;64118.50;;;8.90;98.02
41636;BME280;27623;51.966;4.602;2023-02-12T08:29:21;64106.34;;;8.83;97.64
41636;BME280;27623;51.966;4.602;2023-02-12T08:31:49;64114.69;;;8.93;98.34
41636;BME280;27623;51.966;4.602;2023-02-12T08:34:23;64098.69;;;8.98;97.34
41636;BME280;27623;51.966;4.602;2023-02-12T08:36:50;64109.59;;;8.93;97.22
41636;BME280;27623;51.966;4.602;2023-02-12T08:39:17;64102.88;;;8.92;99.01
41636;BME280;27623;51.966;4.602;2023-02-12T08:41:43;64123.75;;;9.00;99.13
41636;BME280;27623;51.966;4.602;2023-02-12T08:44:09;64086.72;;;9.01;98.20
41636;BME280;27623;51.966;4.602;2023-02-12T08:46:37;64120.47;;;8.96;98.57
41636;BME280;27623;51.966;4.602;2023-02-12T08:49:07;64126.81;;;9.00;97.98
41636;BME280;27623;51.966;4.602;2023-02-12T08:51:38;64117.56;;;8.99;97.32
41636;BME280;27623;51.966;4.602;2023-02-12T08:54:06;64102.50;;;8.94;97.59
41636;BME280;27623;51.966;4.602;2023-02-12T08:56:33;64122.84;;;9.01;97.73
41636;BME280;27623;51.966;4.602;2023-02-12T08:59:01;64120.47;;;8.96;97.54
41636;BME280;27623;51.966;4.602;2023-02-12T09:01:30;64090.91;;;8.88;97.07
41636;BME280;27623;51.966;4.602;2023-02-12T09:03:55;64090.56;;;8.90;96.60
41636;BME280;27623;51.966;4.602;2023-02-12T09:06:22;64109.78;;;8.89;95.92
41636;BME280;27623;51.966;4.602;2023-02-12T09:08:49;64084.19;;;8.93;95.93
41636;BME280;27623;51.966;4.602;2023-02-12T09:11:18;64102.31;;;8.99;96.03
41636;BME280;27623;51.966;4.602;2023-02-12T09:13:45;64097.97;;;8.94;95.16
41636;BME280;27623;51.966;4.602;2023-02-12T09:16:11;64143.53;;;8.99;94.47
41636;BME280;27623;51.966;4.602;2023-02-12T09:18:37;64115.75;;;9.02;95.73
41636;BME280;27623;51.966;4.602;2023-02-12T09:21:09;64105.22;;;8.96;95.04
41636;BME280;27623;51.966;4.602;2023-02-12T09:23:36;64094.34;;;9.01;95.59
41636;BME280;27623;51.966;4.602;2023-02-12T09:26:10;64121.00;;;8.97;94.79
41636;BME280;27623;51.966;4.602;2023-02-12T09:28:36;64121.94;;;8.95;93.61
41636;BME280;27623;51.966;4.602;2023-02-12T09:31:06;64127.38;;;8.93;93.22
41636;BME280;27623;51.966;4.602;2023-02-12T09:33:33;64108.50;;;9.00;93.71
41636;BME280;27623;51.966;4.602;2023-02-12T09:36:03;64105.63;;;8.87;90.54
41636;BME280;27623;51.966;4.602;2023-02-12T09:38:28;64124.66;;;8.98;91.03
41636;BME280;27623;51.966;4.602;2023-02-12T09:44:19;64077.06;;;9.08;89.26
41636;BME280;27623;51.966;4.602;2023-02-12T09:46:57;64151.16;;;9.06;87.86
41636;BME280;27623;51.966;4.602;2023-02-12T09:52:01;64119.19;;;9.14;88.97
41636;BME280;27623;51.966;4.602;2023-02-12T09:54:35;64154.78;;;9.07;87.29
41636;BME280;27623;51.966;4.602;2023-02-12T09:57:10;64134.25;;;9.12;87.16
41636;BME280;27623;51.966;4.602;2023-02-12T09:59:45;64134.44;;;9.14;87.65
41636;BME280;27623;51.966;4.602;2023-02-12T10:02:16;64147.16;;;9.00;85.20
41636;BME280;27623;51.966;4.602;2023-02-12T10:04:44;64129.34;;;9.14;87.79
41636;BME280;27623;51.966;4.602;2023-02-12T10:17:49;64148.94;;;9.25;86.75
41636;BME280;27623;51.966;4.602;2023-02-12T10:20:47;64112.44;;;9.20;85.76
41636;BME280;27623;51.966;4.602;2023-02-12T10:26:51;64148.00;;;9.41;86.21
41636;BME280;27623;51.966;4.602;2023-02-12T10:29:24;64147.47;;;9.34;84.47
41636;BME280;27623;51.966;4.602;2023-02-12T10:32:02;64154.38;;;9.23;82.12
41636;BME280;27623;51.966;4.602;2023-02-12T10:34:34;64167.66;;;9.31;82.84
41636;BME280;27623;51.966;4.602;2023-02-12T10:39:54;64120.63;;;9.20;81.22
41636;BME280;27623;51.966;4.602;2023-02-12T10:44:57;64148.56;;;9.27;80.15
41636;BME280;27623;51.966;4.602;2023-02-12T10:47:23;64115.53;;;9.20;79.87
41636;BME280;27623;51.966;4.602;2023-02-12T10:49:54;64164.00;;;9.30;81.73
41636;BME280;27623;51.966;4.602;2023-02-12T10:52:44;64166.34;;;9.42;82.20
41636;BME280;27623;51.966;4.602;2023-02-12T10:55:34;64144.41;;;9.33;80.85
41636;BME280;27623;51.966;4.602;2023-02-12T10:58:03;64192.88;;;9.50;82.82
41636;BME280;27623;51.966;4.602;2023-02-12T11:00:34;64166.53;;;9.51;83.84
41636;BME280;27623;51.966;4.602;2023-02-12T11:05:39;64189.22;;;9.56;83.10
41636;BME280;27623;51.966;4.602;2023-02-12T11:08:05;64182.84;;;9.59;83.96
41636;BME280;27623;51.966;4.602;2023-02-12T11:10:35;64122.97;;;9.32;79.48
41636;BME280;27623;51.966;4.602;2023-02-12T11:13:02;64157.09;;;9.40;80.16
41636;BME280;27623;51.966;4.602;2023-02-12T11:15:45;64175.25;;;9.52;79.95
41636;BME280;27623;51.966;4.602;2023-02-12T11:20:50;64135.13;;;9.32;79.34
41636;BME280;27623;51.966;4.602;2023-02-12T11:23:31;64158.16;;;9.41;79.78
41636;BME280;27623;51.966;4.602;2023-02-12T11:25:59;64185.59;;;9.55;82.17
41636;BME280;27623;51.966;4.602;2023-02-12T11:28:28;64186.13;;;9.48;81.08
41636;BME280;27623;51.966;4.602;2023-02-12T11:31:03;64174.16;;;9.51;80.79
41636;BME280;27623;51.966;4.602;2023-02-12T11:35:58;64151.25;;;9.51;80.17
41636;BME280;27623;51.966;4.602;2023-02-12T11:38:30;64193.75;;;9.55;80.99
41636;BME280;27623;51.966;4.602;2023-02-12T11:41:18;64156.34;;;9.44;79.63
41636;BME280;27623;51.966;4.602;2023-02-12T11:43:46;64176.69;;;9.51;79.76
41636;BME280;27623;51.966;4.602;2023-02-12T11:46:19;64157.09;;;9.40;78.53
41636;BME280;27623;51.966;4.602;2023-02-12T11:48:46;64144.22;;;9.30;77.46
41636;BME280;27623;51.966;4.602;2023-02-12T11:51:19;64147.47;;;9.41;78.84
41636;BME280;27623;51.966;4.602;2023-02-12T11:53:53;64160.53;;;9.39;78.86
41636;BME280;27623;51.966;4.602;2023-02-12T11:56:20;64200.84;;;9.48;79.42
41636;BME280;27623;51.966;4.602;2023-02-12T11:58:47;64154.19;;;9.35;76.96
41636;BME280;27623;51.966;4.602;2023-02-12T12:01:21;64129.47;;;9.45;77.83
41636;BME280;27623;51.966;4.602;2023-02-12T12:09:08;64145.09;;;9.36;76.73
41636;BME280;27623;51.966;4.602;2023-02-12T12:14:29;64130.56;;;9.39;78.13
41636;BME280;27623;51.966;4.602;2023-02-12T12:17:12;64174.00;;;9.27;78.11
41636;BME280;27623;51.966;4.602;2023-02-12T12:20:10;64126.44;;;9.23;77.34
41636;BME280;27623;51.966;4.602;2023-02-12T12:22:52;64138.44;;;9.13;76.51
41636;BME280;27623;51.966;4.602;2023-02-12T12:25:30;64122.09;;;9.12;76.61
41636;BME280;27623;51.966;4.602;2023-02-12T12:33:16;64120.06;;;9.20;78.44
41636;BME280;27623;51.966;4.602;2023-02-12T12:36:00;64150.22;;;9.29;79.06
41636;BME280;27623;51.966;4.602;2023-02-12T13:17:32;64140.94;;;9.27;78.69
41636;BME280;27623;51.966;4.602;2023-02-12T13:27:41;64103.00;;;9.23;78.99
41636;BME280;27623;51.966;4.602;2023-02-12T13:35:22;64135.16;;;9.10;78.69
41636;BME280;27623;51.966;4.602;2023-02-12T13:37:53;64127.69;;;9.27;80.75
41636;BME280;27623;51.966;4.602;2023-02-12T13:40:22;64153.28;;;9.29;81.11
41636;BME280;27623;51.966;4.602;2023-02-12T13:43:26;64139.69;;;9.17;79.41
41636;BME280;27623;51.966;4.602;2023-02-12T13:46:23;64135.88;;;9.27;79.03
41636;BME280;27623;51.966;4.602;2023-02-12T13:49:02;64120.78;;;9.30;80.07
41636;BME280;27623;51.966;4.602;2023-02-12T13:51:35;64132.22;;;9.26;79.35
41636;BME280;27623;51.966;4.602;2023-02-12T13:57:00;64114.28;;;9.10;79.13
41636;BME280;27623;51.966;4.602;2023-02-12T14:05:18;64130.78;;;9.27;81.21
41636;BME280;27623;51.966;4.602;2023-02-12T14:07:57;64123.88;;;9.16;80.13
41636;BME280;27623;51.966;4.602;2023-02-12T14:10:33;64169.47;;;9.28;81.08
41636;BME280;27623;51.966;4.602;2023-02-12T14:13:18;64132.41;;;9.29;80.10
41636;BME280;27623;51.966;4.602;2023-02-12T14:15:49;64157.13;;;9.26;79.53
41636;BME280;27623;51.966;4.602;2023-02-12T14:18:23;64111.19;;;9.16;79.49
41636;BME280;27623;51.966;4.602;2023-02-12T14:23:33;64074.56;;;8.94;79.75
41636;BME280;27623;51.966;4.602;2023-02-12T14:26:04;64151.47;;;9.25;79.63
41636;BME280;27623;51.966;4.602;2023-02-12T14:28:33;64100.63;;;9.25;78.95
41636;BME280;27623;51.966;4.602;2023-02-12T14:33:45;64107.41;;;9.06;80.05
41636;BME280;27623;51.966;4.602;2023-02-12T14:36:19;64129.53;;;9.10;80.28
41636;BME280;27623;51.966;4.602;2023-02-12T14:41:33;64149.47;;;9.40;79.68
41636;BME280;27623;51.966;4.602;2023-02-12T14:50:00;64141.50;;;9.28;80.20
41636;BME280;27623;51.966;4.602;2023-02-12T14:52:30;64164.56;;;9.16;79.48
41636;BME280;27623;51.966;4.602;2023-02-12T14:54:58;64169.09;;;9.16;80.02
41636;BME280;27623;51.966;4.602;2023-02-12T14:57:32;64110.97;;;9.28;78.75
41636;BME280;27623;51.966;4.602;2023-02-12T15:00:03;64108.25;;;9.25;78.75
41636;BME280;27623;51.966;4.602;2023-02-12T15:02:51;64139.69;;;9.31;77.63
41636;BME280;27623;51.966;4.602;2023-02-12T15:05:22;64141.84;;;9.33;76.45
41636;BME280;27623;51.966;4.602;2023-02-12T15:07:52;64088.47;;;9.26;78.74
41636;BME280;27623;51.966;4.602;2023-02-12T15:10:51;64094.47;;;9.24;77.67
41636;BME280;27623;51.966;4.602;2023-02-12T15:16:05;64148.75;;;9.23;79.17
41636;BME280;27623;51.966;4.602;2023-02-12T15:21:24;64148.75;;;9.30;77.60
41636;BME280;27623;51.966;4.602;2023-02-12T15:24:12;64163.66;;;9.25;78.39
41636;BME280;27623;51.966;4.602;2023-02-12T15:26:47;64158.56;;;9.25;78.14
41636;BME280;27623;51.966;4.602;2023-02-12T15:29:29;64167.66;;;9.31;78.84
41636;BME280;27623;51.966;4.602;2023-02-12T15:32:04;64144.59;;;9.28;77.80
41636;BME280;27623;51.966;4.602;2023-02-12T15:34:32;64134.97;;;9.29;78.25
41636;BME280;27623;51.966;4.602;2023-02-12T15:37:00;64135.69;;;9.32;79.15
41636;BME280;27623;51.966;4.602;2023-02-12T15:39:27;64132.97;;;9.29;78.84
41636;BME280;27623;51.966;4.602;2023-02-12T15:41:57;64152.03;;;9.33;80.27
41636;BME280;27623;51.966;4.602;2023-02-12T15:44:31;64132.59;;;9.32;79.90
41636;BME280;27623;51.966;4.602;2023-02-12T15:47:12;64173.78;;;9.39;80.37
41636;BME280;27623;51.966;4.602;2023-02-12T15:49:40;64169.25;;;9.47;80.17
41636;BME280;27623;51.966;4.602;2023-02-12T15:52:19;64186.50;;;9.46;79.74
41636;BME280;27623;51.966;4.602;2023-02-12T15:54:46;64156.00;;;9.46;79.74
41636;BME280;27623;51.966;4.602;2023-02-12T15:57:22;64174.34;;;9.47;79.89
41636;BME280;27623;51.966;4.602;2023-02-12T15:59:53;64164.88;;;9.50;78.92
41636;BME280;27623;51.966;4.602;2023-02-12T16:02:27;64145.59;;;9.58;78.82
41636;BME280;27623;51.966;4.602;2023-02-12T16:04:54;64164.50;;;9.59;78.69
41636;BME280;27623;51.966;4.602;2023-02-12T16:07:23;64186.84;;;9.58;77.92
41636;BME280;27623;51.966;4.602;2023-02-12T16:09:52;64126.38;;;9.45;79.49
41636;BME280;27623;51.966;4.602;2023-02-12T16:12:21;64129.47;;;9.38;79.21
41636;BME280;27623;51.966;4.602;2023-02-12T16:14:50;64153.09;;;9.41;80.32
41636;BME280;27623;51.966;4.602;2023-02-12T16:20:02;64140.41;;;9.34;81.24
41636;BME280;27623;51.966;4.602;2023-02-12T16:22:39;64158.03;;;9.32;81.19
41636;BME280;27623;51.966;4.602;2023-02-12T16:25:15;64158.34;;;9.37;82.10